createdAt,value
2018-05-08T00:01:56.551Z,62.60
2018-05-08T00:04:22.807Z,62.70
2018-05-08T00:06:49.897Z,62.70
2018-05-08T00:09:16.162Z,62.40
2018-05-08T00:11:42.397Z,62.00
2018-05-08T00:14:08.662Z,61.60
2018-05-08T00:16:34.891Z,62.60
2018-05-08T00:19:01.141Z,62.10
2018-05-08T00:21:27.380Z,63.30
2018-05-08T00:23:54.439Z,63.40
2018-05-08T00:26:21.417Z,64.20
2018-05-08T00:28:47.688Z,63.30
2018-05-08T00:31:13.918Z,63.20
2018-05-08T00:33:40.156Z,63.10
2018-05-08T00:36:06.520Z,63.50
2018-05-08T00:38:32.736Z,63.50
2018-05-08T00:40:58.974Z,64.30
2018-05-08T00:43:25.214Z,65.00
2018-05-08T00:45:51.496Z,65.10
2018-05-08T00:48:17.754Z,66.20
2018-05-08T00:50:44.053Z,65.70
2018-05-08T00:53:11.028Z,67.50
2018-05-08T00:55:37.264Z,66.10
2018-05-08T00:58:03.517Z,65.60
2018-05-08T01:00:30.153Z,65.30
2018-05-08T01:02:57.498Z,66.60
2018-05-08T01:05:23.791Z,66.10
2018-05-08T01:07:50.813Z,64.90
2018-05-08T01:10:17.828Z,64.20
2018-05-08T01:12:44.887Z,62.80
2018-05-08T01:15:11.905Z,63.30
2018-05-08T01:17:39.669Z,62.10
2018-05-08T01:20:05.890Z,61.00
2018-05-08T01:22:32.143Z,60.40
2018-05-08T01:24:58.461Z,60.60
2018-05-08T01:27:25.042Z,60.20
2018-05-08T01:29:51.328Z,60.90
2018-05-08T01:32:17.591Z,61.20
2018-05-08T01:34:43.832Z,62.00
2018-05-08T01:37:10.034Z,60.80
2018-05-08T01:39:37.406Z,63.80
2018-05-08T01:42:03.707Z,62.20
2018-05-08T01:44:30.657Z,63.50
2018-05-08T01:46:57.623Z,62.20
2018-05-08T01:49:24.279Z,61.00
2018-05-08T01:51:50.536Z,61.60
2018-05-08T01:54:16.892Z,60.90
2018-05-08T01:56:43.166Z,61.90
2018-05-08T01:59:10.181Z,62.50
2018-05-08T02:01:36.415Z,61.00
2018-05-08T02:04:02.669Z,61.90
2018-05-08T02:06:28.909Z,60.30
2018-05-08T02:08:55.923Z,61.60
2018-05-08T02:11:22.163Z,61.40
2018-05-08T02:13:48.419Z,61.00
2018-05-08T02:16:15.004Z,59.80
2018-05-08T02:18:41.267Z,59.90
2018-05-08T02:21:07.514Z,60.50
2018-05-08T02:23:33.825Z,59.40
2018-05-08T02:26:00.125Z,58.70
2018-05-08T02:28:26.353Z,58.60
2018-05-08T02:30:53.304Z,57.80
2018-05-08T02:33:19.538Z,57.60
2018-05-08T02:35:45.783Z,57.80
2018-05-08T02:38:12.797Z,58.80
2018-05-08T02:40:39.803Z,57.50
2018-05-08T02:43:06.119Z,57.80
2018-05-08T02:45:32.373Z,57.60
2018-05-08T02:47:59.319Z,58.40
2018-05-08T02:50:25.602Z,57.10
2018-05-08T02:52:51.869Z,57.50
2018-05-08T02:55:18.964Z,56.30
2018-05-08T02:57:45.180Z,56.10
2018-05-08T03:00:12.252Z,56.40
2018-05-08T03:02:38.489Z,55.50
2018-05-08T03:05:04.743Z,56.10
2018-05-08T03:07:31.043Z,55.70
2018-05-08T03:09:57.308Z,55.70
2018-05-08T03:12:23.569Z,56.30
2018-05-08T03:14:49.811Z,55.20
2018-05-08T03:17:16.083Z,55.90
2018-05-08T03:19:43.071Z,55.30
2018-05-08T03:22:09.359Z,54.70
2018-05-08T03:24:36.329Z,55.10
2018-05-08T03:27:03.323Z,55.80
2018-05-08T03:29:29.558Z,55.40
2018-05-08T03:31:55.818Z,56.90
2018-05-08T03:34:22.763Z,56.00
2018-05-08T03:36:48.989Z,56.40
2018-05-08T03:39:15.239Z,56.80
2018-05-08T03:41:41.508Z,57.20
2018-05-08T03:44:08.477Z,57.00
2018-05-08T03:46:34.708Z,56.10
2018-05-08T03:49:01.364Z,56.90
2018-05-08T03:51:27.627Z,55.60
2018-05-08T03:53:54.048Z,55.80
2018-05-08T03:56:20.659Z,55.90
2018-05-08T03:58:47.687Z,56.30
2018-05-08T04:01:26.213Z,56.80
2018-05-08T04:04:04.830Z,55.80
2018-05-08T04:09:38.377Z,57.40
2018-05-08T04:12:04.628Z,56.90
2018-05-08T04:14:31.649Z,56.30
2018-05-08T04:16:58.650Z,57.70
2018-05-08T04:19:24.941Z,56.90
2018-05-08T04:21:51.185Z,56.30
2018-05-08T04:24:17.447Z,56.80
2018-05-08T04:26:43.684Z,56.30
2018-05-08T04:29:09.904Z,57.20
2018-05-08T04:31:36.124Z,56.70
2018-05-08T04:34:02.437Z,56.80
2018-05-08T04:36:29.491Z,57.10
2018-05-08T04:38:56.068Z,58.60
2018-05-08T04:41:22.287Z,57.00
2018-05-08T04:43:48.572Z,57.30
2018-05-08T04:46:14.859Z,56.60
2018-05-08T04:48:41.103Z,56.40
2018-05-08T04:51:07.743Z,56.80
2018-05-08T04:53:34.063Z,57.10
2018-05-08T04:56:01.073Z,55.80
2018-05-08T04:58:27.329Z,55.30
2018-05-08T05:00:53.616Z,55.00
2018-05-08T05:03:19.860Z,55.30
2018-05-08T05:05:46.890Z,55.50
2018-05-08T05:08:13.839Z,55.40
2018-05-08T05:10:40.868Z,55.90
2018-05-08T05:13:07.109Z,56.30
2018-05-08T05:15:33.380Z,56.70
2018-05-08T05:17:59.777Z,54.90
2018-05-08T05:20:26.035Z,54.80
2018-05-08T05:22:53.103Z,55.50
2018-05-08T05:25:19.734Z,54.70
2018-05-08T05:27:46.720Z,55.70
2018-05-08T05:30:13.020Z,55.00
2018-05-08T05:32:40.045Z,55.70
2018-05-08T05:35:06.367Z,54.80
2018-05-08T05:37:32.651Z,55.40
2018-05-08T05:39:59.610Z,55.30
2018-05-08T05:42:25.880Z,55.00
2018-05-08T05:44:52.085Z,55.30
2018-05-08T05:47:18.356Z,55.20
2018-05-08T05:49:44.614Z,55.40
2018-05-08T05:52:10.895Z,55.30
2018-05-08T05:54:37.119Z,55.00
2018-05-08T05:57:04.124Z,55.60
2018-05-08T05:59:30.411Z,55.10
2018-05-08T06:01:57.047Z,54.10
2018-05-08T06:04:24.060Z,54.20
2018-05-08T06:06:50.367Z,54.10
2018-05-08T06:09:16.660Z,54.00
2018-05-08T06:11:42.909Z,53.60
2018-05-08T06:14:09.965Z,53.50
2018-05-08T06:16:36.976Z,53.70
2018-05-08T06:19:03.598Z,52.70
2018-05-08T06:21:29.904Z,52.90
2018-05-08T06:23:56.956Z,55.60
2018-05-08T06:26:24.004Z,54.80
2018-05-08T06:28:51.013Z,53.20
2018-05-08T06:31:17.230Z,53.10
2018-05-08T06:33:43.459Z,52.20
2018-05-08T06:36:09.715Z,52.90
2018-05-08T06:38:36.701Z,52.20
2018-05-08T06:41:02.968Z,51.40
2018-05-08T06:43:29.199Z,51.00
2018-05-08T06:45:55.484Z,51.80
2018-05-08T06:48:21.720Z,52.00
2018-05-08T06:50:48.009Z,52.60
2018-05-08T06:53:14.255Z,52.00
2018-05-08T06:55:41.264Z,49.90
2018-05-08T06:58:07.519Z,50.10
2018-05-08T07:00:34.541Z,50.80
2018-05-08T07:03:01.138Z,51.90
2018-05-08T07:05:27.404Z,49.70
2018-05-08T07:07:54.405Z,50.00
2018-05-08T07:10:21.404Z,49.50
2018-05-08T07:12:48.429Z,48.30
2018-05-08T07:15:14.690Z,47.90
2018-05-08T07:17:40.950Z,51.40
2018-05-08T07:20:07.190Z,52.30
2018-05-08T07:22:33.512Z,49.80
2018-05-08T07:24:59.744Z,48.00
2018-05-08T07:27:26.022Z,49.00
2018-05-08T07:29:53.034Z,46.90
2018-05-08T07:32:19.275Z,47.20
2018-05-08T07:34:45.525Z,46.30
2018-05-08T07:37:11.831Z,46.80
2018-05-08T07:39:38.075Z,45.70
2018-05-08T07:42:04.341Z,46.10
2018-05-08T07:44:31.344Z,46.20
2018-05-08T07:46:57.590Z,46.10
2018-05-08T07:49:23.846Z,48.20
2018-05-08T07:51:50.160Z,46.30
2018-05-08T07:54:16.383Z,47.20
2018-05-08T07:56:42.641Z,47.70
2018-05-08T07:59:08.922Z,48.00
2018-05-08T08:01:35.910Z,46.70
2018-05-08T08:04:02.191Z,47.20
2018-05-08T08:06:28.435Z,43.70
2018-05-08T08:08:55.435Z,44.10
2018-05-08T08:11:22.671Z,44.10
2018-05-08T08:13:48.931Z,43.40
2018-05-08T08:16:15.601Z,44.10
2018-05-08T08:18:41.861Z,44.60
2018-05-08T08:21:08.169Z,43.10
2018-05-08T08:23:35.209Z,43.30
2018-05-08T08:26:01.498Z,43.50
2018-05-08T08:28:28.495Z,43.80
2018-05-08T08:30:54.736Z,43.70
2018-05-08T08:33:21.380Z,41.30
2018-05-08T08:35:47.684Z,41.10
2018-05-08T08:38:14.780Z,41.50
2018-05-08T08:40:41.765Z,42.10
2018-05-08T08:43:08.038Z,42.20
2018-05-08T08:45:34.316Z,42.60
2018-05-08T08:48:00.567Z,42.40
2018-05-08T08:50:26.948Z,40.90
2018-05-08T08:52:53.953Z,40.60
2018-05-08T08:55:20.194Z,40.60
2018-05-08T08:57:46.511Z,40.50
2018-05-08T09:00:13.537Z,40.90
2018-05-08T09:02:39.821Z,40.90
2018-05-08T09:05:06.092Z,40.60
2018-05-08T09:07:32.403Z,38.80
2018-05-08T09:09:59.047Z,41.50
2018-05-08T09:12:25.433Z,40.10
2018-05-08T09:14:51.701Z,36.90
2018-05-08T09:17:18.012Z,36.90
2018-05-08T09:19:44.265Z,37.60
2018-05-08T09:22:10.578Z,37.90
2018-05-08T09:24:36.841Z,38.40
2018-05-08T09:27:03.052Z,38.50
2018-05-08T09:29:30.964Z,37.20
2018-05-08T09:31:57.301Z,36.70
2018-05-08T09:34:23.559Z,36.80
2018-05-08T09:36:50.596Z,37.90
2018-05-08T09:39:16.871Z,38.00
2018-05-08T09:41:44.636Z,39.50
2018-05-08T09:44:11.715Z,38.90
2018-05-08T09:46:37.986Z,36.10
2018-05-08T09:49:04.290Z,33.80
2018-05-08T09:51:30.531Z,35.90
2018-05-08T09:53:56.777Z,35.80
2018-05-08T09:56:23.037Z,35.10
2018-05-08T09:58:49.268Z,35.30
2018-05-08T10:01:15.575Z,36.40
2018-05-08T10:03:41.901Z,37.80
2018-05-08T10:06:08.308Z,37.10
2018-05-08T10:08:35.321Z,37.50
2018-05-08T10:11:01.644Z,36.30
2018-05-08T10:16:07.736Z,37.00
2018-05-08T10:18:34.033Z,35.20
2018-05-08T10:21:00.368Z,35.60
2018-05-08T10:23:26.633Z,33.80
2018-05-08T10:25:52.889Z,36.70
2018-05-08T10:28:19.164Z,33.40
2018-05-08T10:30:46.212Z,33.70
2018-05-08T10:33:12.891Z,34.60
2018-05-08T10:35:39.206Z,35.90
2018-05-08T10:38:05.492Z,34.70
2018-05-08T10:40:31.757Z,34.40
2018-05-08T10:42:58.821Z,34.10
2018-05-08T10:45:25.192Z,36.80
2018-05-08T10:47:51.438Z,33.50
2018-05-08T10:50:17.731Z,32.80
2018-05-08T10:52:44.334Z,32.50
2018-05-08T10:55:11.002Z,30.90
2018-05-08T10:57:38.024Z,31.10
2018-05-08T11:00:04.349Z,30.50
2018-05-08T11:02:30.913Z,30.30
2018-05-08T11:04:57.196Z,30.90
2018-05-08T11:07:24.243Z,31.70
2018-05-08T11:09:51.290Z,31.90
2018-05-08T11:12:18.253Z,31.00
2018-05-08T11:14:45.264Z,30.20
2018-05-08T11:17:11.517Z,31.20
2018-05-08T11:19:37.787Z,29.90
2018-05-08T11:22:04.792Z,29.90
2018-05-08T11:24:31.023Z,30.70
2018-05-08T11:26:57.331Z,30.90
2018-05-08T11:29:24.342Z,31.70
2018-05-08T11:31:50.632Z,31.70
2018-05-08T11:34:17.610Z,30.30
2018-05-08T11:36:43.876Z,29.60
2018-05-08T11:39:10.931Z,30.50
2018-05-08T11:41:37.204Z,29.20
2018-05-08T11:44:03.484Z,30.70
2018-05-08T11:46:29.815Z,31.20
2018-05-08T11:49:05.939Z,29.50
2018-05-08T11:51:32.295Z,29.80
2018-05-08T11:53:59.533Z,30.50
2018-05-08T11:56:25.823Z,32.10
2018-05-08T11:58:52.108Z,29.30
2018-05-08T12:01:18.443Z,29.50
2018-05-08T12:03:44.782Z,29.90
2018-05-08T12:06:11.023Z,30.00
2018-05-08T12:08:37.308Z,29.40
2018-05-08T12:11:03.583Z,31.80
2018-05-08T12:13:29.868Z,31.40
2018-05-08T12:15:56.182Z,31.90
2018-05-08T12:18:22.502Z,30.30
2018-05-08T12:20:48.729Z,30.40
2018-05-08T12:23:15.037Z,29.00
2018-05-08T12:25:42.101Z,29.60
2018-05-08T12:28:08.362Z,29.60
2018-05-08T12:30:34.678Z,28.10
2018-05-08T12:33:00.919Z,28.20
2018-05-08T12:35:27.233Z,28.50
2018-05-08T12:37:54.197Z,30.10
2018-05-08T12:40:21.275Z,29.00
2018-05-08T12:42:48.379Z,29.20
2018-05-08T12:45:14.678Z,28.80
2018-05-08T12:47:41.019Z,28.00
2018-05-08T12:50:07.337Z,28.30
2018-05-08T12:52:33.578Z,28.70
2018-05-08T12:54:59.998Z,29.70
2018-05-08T12:57:26.962Z,30.40
2018-05-08T12:59:53.261Z,30.30
2018-05-08T13:02:19.547Z,29.80
2018-05-08T13:04:45.788Z,30.30
2018-05-08T13:07:12.099Z,31.00
2018-05-08T13:09:38.488Z,31.50
2018-05-08T13:12:04.779Z,29.10
2018-05-08T13:14:31.019Z,30.00
2018-05-08T13:16:57.312Z,29.80
2018-05-08T13:19:23.798Z,30.30
2018-05-08T13:21:50.869Z,29.60
2018-05-08T13:24:17.197Z,29.20
2018-05-08T13:26:43.409Z,29.50
2018-05-08T13:29:10.495Z,28.00
2018-05-08T13:31:36.754Z,28.00
2018-05-08T13:34:03.019Z,21.00
2018-05-08T13:36:29.315Z,19.80
2018-05-08T13:38:55.629Z,18.80
2018-05-08T13:41:21.854Z,18.80
2018-05-08T13:43:48.145Z,18.90
2018-05-08T13:46:14.368Z,20.90
2018-05-08T13:48:40.708Z,22.40
2018-05-08T13:51:07.693Z,22.50
2018-05-08T13:53:34.690Z,22.10
2018-05-08T13:56:00.983Z,23.10
2018-05-08T13:58:27.998Z,23.70
2018-05-08T14:00:54.343Z,23.60
2018-05-08T14:05:59.797Z,24.10
2018-05-08T14:08:26.039Z,24.20
2018-05-08T14:10:52.333Z,23.70
2018-05-08T14:13:18.602Z,24.10
2018-05-08T14:15:45.658Z,22.30
2018-05-08T14:18:11.893Z,22.10
2018-05-08T14:20:38.205Z,23.20
2018-05-08T14:23:04.468Z,22.30
2018-05-08T14:25:31.519Z,23.40
2018-05-08T14:27:57.829Z,22.90
2018-05-08T14:30:24.134Z,19.80
2018-05-08T14:32:50.452Z,17.70
2018-05-08T14:35:16.740Z,16.40
2018-05-08T14:37:42.999Z,15.90
2018-05-08T14:40:09.235Z,16.40
2018-05-08T14:42:35.504Z,17.50
2018-05-08T14:45:01.786Z,17.00
2018-05-08T14:47:28.085Z,16.20
2018-05-08T14:49:54.725Z,14.30
2018-05-08T14:52:21.707Z,14.90
2018-05-08T14:54:48.050Z,13.90
2018-05-08T14:57:14.310Z,14.20
2018-05-08T14:59:40.629Z,14.40
2018-05-08T15:02:07.343Z,13.80
2018-05-08T15:04:33.654Z,14.10
2018-05-08T15:06:59.904Z,13.80
2018-05-08T15:09:26.243Z,13.80
2018-05-08T15:11:52.525Z,14.10
2018-05-08T15:14:18.890Z,14.80
2018-05-08T15:16:46.699Z,15.30
2018-05-08T15:19:13.820Z,15.60
2018-05-08T15:21:40.197Z,14.90
2018-05-08T15:24:06.371Z,15.70
2018-05-08T15:26:32.698Z,16.10
2018-05-08T15:28:58.969Z,16.60
2018-05-08T15:31:25.245Z,15.80
2018-05-08T15:33:52.309Z,17.30
2018-05-08T15:36:19.438Z,19.00
2018-05-08T15:38:45.710Z,19.30
2018-05-08T15:41:12.174Z,19.90
2018-05-08T15:43:39.107Z,20.80
2018-05-08T15:46:05.394Z,21.00
2018-05-08T15:48:31.697Z,21.50
2018-05-08T15:50:58.408Z,21.80
2018-05-08T15:53:25.437Z,23.30
2018-05-08T15:55:51.719Z,23.00
2018-05-08T15:58:18.078Z,23.60
2018-05-08T16:00:44.385Z,24.90
2018-05-08T16:03:11.087Z,23.80
2018-05-08T16:05:37.366Z,24.20
2018-05-08T16:08:03.698Z,26.20
2018-05-08T16:10:30.749Z,25.70
2018-05-08T16:12:57.079Z,25.00
2018-05-08T16:15:24.124Z,25.60
2018-05-08T16:17:51.229Z,25.00
2018-05-08T16:20:17.500Z,25.20
2018-05-08T16:22:44.538Z,25.60
2018-05-08T16:25:10.807Z,25.30
2018-05-08T16:27:37.839Z,27.20
2018-05-08T16:30:04.839Z,26.10
2018-05-08T16:32:31.120Z,26.40
2018-05-08T16:34:57.394Z,26.40
2018-05-08T16:37:25.036Z,26.50
2018-05-08T16:39:51.355Z,26.10
2018-05-08T16:42:17.659Z,27.20
2018-05-08T16:44:43.945Z,28.00
2018-05-08T16:47:10.241Z,27.20
2018-05-08T16:49:37.359Z,26.20
2018-05-08T16:52:04.389Z,26.80
2018-05-08T16:54:31.076Z,27.80
2018-05-08T16:56:57.371Z,26.90
2018-05-08T16:59:23.692Z,27.70
2018-05-08T17:01:50.339Z,28.10
2018-05-08T17:04:16.589Z,27.90
2018-05-08T17:06:44.364Z,29.10
2018-05-08T17:09:10.659Z,28.50
2018-05-08T17:11:36.953Z,28.20
2018-05-08T17:14:03.981Z,30.10
2018-05-08T17:16:30.211Z,29.50
2018-05-08T17:18:56.514Z,28.80
2018-05-08T17:21:23.145Z,29.80
2018-05-08T17:23:49.461Z,30.00
2018-05-08T17:26:16.459Z,29.80
2018-05-08T17:28:42.748Z,29.20
2018-05-08T17:31:09.832Z,30.40
2018-05-08T17:33:36.280Z,30.00
2018-05-08T17:36:03.184Z,30.00
2018-05-08T17:38:29.538Z,29.90
2018-05-08T17:40:56.816Z,30.00
2018-05-08T17:43:23.126Z,31.50
2018-05-08T17:45:50.114Z,32.90
2018-05-08T17:48:16.455Z,32.50
2018-05-08T17:50:43.090Z,33.50
2018-05-08T17:53:09.341Z,32.90
2018-05-08T17:55:35.657Z,33.10
2018-05-08T17:58:02.316Z,33.50
2018-05-08T18:00:29.365Z,34.30
2018-05-08T18:02:55.641Z,34.70
2018-05-08T18:05:22.021Z,35.90
2018-05-08T18:07:49.017Z,36.20
2018-05-08T18:10:15.344Z,35.00
2018-05-08T18:12:41.651Z,36.30
2018-05-08T18:15:08.345Z,36.60
2018-05-08T18:17:34.814Z,37.40
2018-05-08T18:20:01.775Z,38.30
2018-05-08T18:22:28.807Z,38.90
2018-05-08T18:24:55.116Z,38.90
2018-05-08T18:27:22.292Z,39.80
2018-05-08T18:29:48.588Z,40.20
2018-05-08T18:32:14.880Z,40.80
2018-05-08T18:34:41.235Z,41.30
2018-05-08T18:37:08.245Z,42.40
2018-05-08T18:39:34.620Z,42.20
2018-05-08T18:42:01.705Z,43.70
2018-05-08T18:44:28.044Z,43.60
2018-05-08T18:46:54.330Z,43.20
2018-05-08T18:49:20.624Z,43.00
2018-05-08T18:51:47.621Z,45.10
2018-05-08T18:54:13.910Z,44.60
2018-05-08T18:56:40.237Z,45.10
2018-05-08T18:59:06.469Z,45.10
2018-05-08T19:01:33.501Z,46.30
2018-05-08T19:03:59.804Z,46.00
2018-05-08T19:06:26.099Z,47.40
2018-05-08T19:08:52.430Z,46.60
2018-05-08T19:11:24.845Z,47.60
2018-05-08T19:13:51.215Z,48.20
2018-05-08T19:16:17.552Z,48.60
2018-05-08T19:18:49.885Z,49.10
2018-05-08T19:21:16.202Z,49.70
2018-05-08T19:23:48.565Z,49.40
2018-05-08T19:26:15.655Z,50.40
2018-05-08T19:28:48.101Z,49.90
2018-05-08T19:31:15.784Z,50.20
2018-05-08T19:33:42.094Z,50.20
2018-05-08T19:36:15.104Z,51.30
2018-05-08T19:38:41.441Z,50.40
2018-05-08T19:41:08.107Z,50.50
2018-05-08T19:43:34.434Z,51.20
2018-05-08T19:46:00.676Z,51.20
2018-05-08T19:48:27.372Z,51.30
2018-05-08T19:50:53.717Z,51.70
2018-05-08T19:53:20.391Z,52.20
2018-05-08T19:55:46.763Z,52.70
2018-05-08T19:58:13.020Z,52.70
2018-05-08T20:00:39.715Z,53.00
2018-05-08T20:03:06.031Z,54.10
2018-05-08T20:05:34.003Z,54.20
2018-05-08T20:08:01.020Z,54.10
2018-05-08T20:10:27.364Z,54.50
2018-05-08T20:12:54.401Z,54.60
2018-05-08T20:15:20.713Z,55.50
2018-05-08T20:17:47.565Z,55.50
2018-05-08T20:20:14.222Z,54.80
2018-05-08T20:22:40.859Z,54.60
2018-05-08T20:25:08.977Z,53.20
2018-05-08T20:27:36.572Z,54.40
2018-05-08T20:30:03.076Z,53.30
2018-05-08T20:32:30.095Z,54.00
2018-05-08T20:34:57.098Z,54.10
2018-05-08T20:37:23.867Z,53.60
2018-05-08T20:39:51.312Z,54.30
2018-05-08T20:42:18.545Z,53.50
2018-05-08T20:44:44.817Z,54.60
2018-05-08T20:47:11.922Z,54.90
2018-05-08T20:49:38.598Z,54.30
2018-05-08T20:52:05.254Z,55.10
2018-05-08T20:54:32.796Z,54.70
2018-05-08T20:56:59.065Z,55.80
2018-05-08T20:59:26.638Z,56.50
2018-05-08T21:01:53.640Z,56.00
2018-05-08T21:04:20.853Z,56.40
2018-05-08T21:06:47.852Z,57.10
2018-05-08T21:09:15.023Z,56.70
2018-05-08T21:11:41.770Z,57.00
2018-05-08T21:14:08.463Z,56.80
2018-05-08T21:16:34.747Z,56.70
2018-05-08T21:19:01.021Z,57.70
2018-05-08T21:21:27.654Z,57.70
2018-05-08T21:23:55.088Z,57.50
2018-05-08T21:26:21.436Z,58.70
2018-05-08T21:28:53.915Z,58.00
2018-05-08T21:31:20.252Z,57.30
2018-05-08T21:33:46.522Z,56.70
2018-05-08T21:36:13.195Z,58.00
2018-05-08T21:38:39.480Z,58.00
2018-05-08T21:41:06.742Z,58.10
2018-05-08T21:43:33.576Z,58.20
2018-05-08T21:46:01.172Z,58.60
2018-05-08T21:48:28.214Z,59.80
2018-05-08T21:50:55.563Z,59.50
2018-05-08T21:53:21.970Z,59.20
2018-05-08T21:55:48.730Z,59.30
2018-05-08T21:58:16.008Z,59.40
2018-05-08T22:00:43.721Z,59.40
2018-05-08T22:03:10.585Z,59.70
2018-05-08T22:05:37.286Z,59.80
2018-05-08T22:08:04.922Z,61.50
2018-05-08T22:10:31.197Z,60.30
2018-05-08T22:12:58.216Z,62.40
2018-05-08T22:15:25.312Z,62.00
2018-05-08T22:17:52.291Z,63.30
2018-05-08T22:20:18.577Z,61.80
2018-05-08T22:22:44.856Z,62.20
2018-05-08T22:25:11.167Z,61.70
2018-05-08T22:27:38.169Z,62.90
2018-05-08T22:30:04.444Z,62.70
2018-05-08T22:32:30.739Z,62.10
2018-05-08T22:34:56.990Z,62.40
2018-05-08T22:37:23.247Z,63.00
2018-05-08T22:39:49.544Z,63.10
2018-05-08T22:42:15.876Z,63.70
2018-05-08T22:44:42.211Z,64.40
2018-05-08T22:47:09.239Z,64.40
2018-05-08T22:49:36.240Z,64.70
2018-05-08T22:52:02.551Z,64.70
2018-05-08T22:54:28.777Z,64.70
2018-05-08T22:56:54.982Z,64.70
2018-05-08T22:59:21.212Z,66.20
2018-05-08T23:01:47.522Z,65.40
2018-05-08T23:04:13.814Z,64.90
2018-05-08T23:06:40.076Z,65.70
2018-05-08T23:09:06.401Z,65.50
2018-05-08T23:11:32.701Z,65.50
2018-05-08T23:13:59.812Z,66.90
2018-05-08T23:16:26.037Z,65.80
2018-05-08T23:18:52.402Z,65.70
2018-05-08T23:21:18.669Z,66.30
2018-05-08T23:23:45.695Z,66.70
2018-05-08T23:26:11.920Z,66.70
2018-05-08T23:28:38.182Z,66.80
2018-05-08T23:31:04.451Z,66.70
2018-05-08T23:33:30.701Z,66.80
2018-05-08T23:35:56.996Z,67.00
2018-05-08T23:38:23.250Z,67.00
2018-05-08T23:40:50.233Z,67.80
2018-05-08T23:43:16.474Z,66.90
2018-05-08T23:45:43.472Z,67.00
2018-05-08T23:48:09.736Z,67.00
2018-05-08T23:50:35.997Z,67.20
2018-05-08T23:53:02.256Z,67.40
2018-05-08T23:55:28.552Z,67.90
2018-05-08T23:57:55.232Z,68.60
